Redlands, CA (92373)

10:08 PM PDT on July 05, 2015 (GMT -0700)
Redlands High School-Terriers | | Change Station
CLOSE
Current Station
Personal Weather Station
Location: Redlands, CA
Elevation: 1505 ft
Nearby Weather Stations
Active Advisory: Flood Warning

Elev 1505 ft 34.05 °N, 117.17 °W | Updated 2 seconds ago

Clear
Clear
68.9 °F
Feels Like 68.9 °F
N
0.0
Wind Variable Wind from North
Gusts 0.0 mph

Today
High -- | Low -- °F
--% Chance of Precip.
Yesterday
High -- | Low -- °F
Precip. -- in
5:42 AM 8:03 PM
Waning Gibbous, 79% visible
Pressure 29.97 in
Visibility 7.0 miles
Clouds Clear
Dew Point 58 °F
Humidity 67%
Rainfall 0.00 in
Snow Depth Not available.
UV 0.0 out of 12
Pollen 3.50 out of 12
Air Quality Not available.
Flu Activity Not available.
METAR KSBD 060347Z 24010KT 7SM SKC 22/13 A2997

More Conditions Fewer Conditions

Pressure 29.97 in
Visibility 7.0 miles
Clouds Clear
Dew Point 58 °F
Humidity 67%
Rainfall 0.00 in
Snow Depth Not available.
UV 0.0 out of 12
Pollen 3.50 out of 12
Air Quality Not available.
Flu Activity Not available.
METAR KSBD 060347Z 24010KT 7SM SKC 22/13 A2997

More Conditions Fewer Conditions

10-Day Weather Forecast

×

Almanac

Astronomy

Jul. 05, 2015 Rise Set
Actual Time
Civil Twilight
Nautical Twilight
Astronomical Twilight
Moon
Length of Visible Light
Length of Day
Tomorrow will be .
, % of the Moon is Illuminated

Today's Extremes

State Highs State Lows

Community

WunderPhotos

Upload Photos

1,835,487 photos uploaded!

WunderBlogs® & News

Nearby

Air Quality

  Air Quality AQ Index Pollutant
Not available.

Snow Depth

Station Depth Elevation

Earthquake Activity

City Distance Mag. Time & Date
Minimum magnitude displayed is 2.5.

Coastal Water Temperatures

Place Temperature

Stations

Nearby Weather Stations

Station Location Temp. Windchill Dew Point Humidity Wind Precip. Elev Updated Type
                   
Flood Warning
Statement as of 9:58 PM PDT on July 05, 2015

... The Flash Flood Warning for east central San Bernardino County is
cancelled...

Heavy rain has ended in the Goffs Road area... and flooding is no
longer expected to pose a threat. Please continue to heed all Road
closures.

Lat... Lon 3504 11487 3481 11484 3470 11523 3505 11524


Stachelski



957 PM PDT sun Jul 5 2015

... The Flash Flood Warning for central San Bernardino County is
cancelled...

The heavy rain has ended over the Mojave National preserve... and
flooding is no longer expected to pose a threat.

Lat... Lon 3539 11514 3503 11497 3503 11522 3470 11521
      3437 11500 3431 11554 3538 11576


Stachelski